Time;durP1;ratioP1;P1;durP2;ratioP2;P2;SDS_P1;SDS_P2;PMS_P1;PMS_P2;Temp;Humidity;BMP_temperature;BMP_pressure;BME280_temperature;BME280_humidity;BME280_pressure;Samples;Min_cycle;Max_cycle;Signal;HPM_P1;HPM_P2
2023/04/06 00:01:13;;;;;;;20.15;12.63;;;2.10;1.00;;;;;;7363091;19;20018;-69
2023/04/06 00:03:43;;;;;;;18.80;11.90;;;2.10;1.00;;;;;;7366577;19;20092;-69
2023/04/06 00:06:14;;;;;;;18.77;12.77;;;2.10;1.00;;;;;;7366921;19;20023;-69
2023/04/06 00:08:46;;;;;;;16.90;11.85;;;2.10;1.00;;;;;;7365554;19;20493;-69
2023/04/06 00:11:16;;;;;;;23.95;12.75;;;2.00;1.00;;;;;;7368941;19;20020;-69
2023/04/06 00:13:47;;;;;;;16.75;11.40;;;2.00;1.00;;;;;;7388043;19;20033;-69
2023/04/06 00:16:20;;;;;;;17.17;11.77;;;2.00;1.00;;;;;;7367321;19;20098;-68
2023/04/06 00:18:53;;;;;;;24.48;12.57;;;2.00;1.00;;;;;;7364431;19;20014;-69
2023/04/06 00:21:23;;;;;;;19.38;11.57;;;2.00;1.00;;;;;;7365630;19;20186;-69
2023/04/06 00:23:53;;;;;;;22.17;12.23;;;1.90;1.00;;;;;;7364257;19;20023;-69
2023/04/06 00:26:23;;;;;;;21.75;12.45;;;1.90;1.00;;;;;;7367669;19;20014;-69
2023/04/06 00:28:53;;;;;;;17.60;11.45;;;1.80;1.00;;;;;;7386801;19;20010;-69
2023/04/06 00:31:26;;;;;;;21.58;13.23;;;1.70;1.00;;;;;;7367104;19;20090;-68
2023/04/06 00:33:56;;;;;;;19.48;12.45;;;1.60;1.00;;;;;;7364216;19;20026;-69
2023/04/06 00:36:26;;;;;;;18.92;13.25;;;1.60;1.00;;;;;;7365427;19;20471;-69
2023/04/06 00:38:56;;;;;;;19.45;13.57;;;1.60;1.00;;;;;;7364349;19;20014;-69
2023/04/06 00:41:26;;;;;;;18.52;13.40;;;1.60;1.00;;;;;;7366709;19;20534;-68
2023/04/06 00:43:57;;;;;;;19.13;12.93;;;1.40;1.00;;;;;;7379598;19;20018;-69
2023/04/06 00:46:30;;;;;;;17.23;12.02;;;1.30;1.00;;;;;;7388678;19;20033;-68
2023/04/06 00:49:01;;;;;;;19.90;12.20;;;1.40;1.00;;;;;;7364068;19;20035;-69
2023/04/06 00:51:31;;;;;;;19.05;12.48;;;1.40;1.00;;;;;;7366229;19;20269;-69
2023/04/06 00:54:01;;;;;;;19.52;12.25;;;1.40;1.00;;;;;;7364876;19;20033;-69
2023/04/06 00:56:31;;;;;;;18.60;13.75;;;1.40;1.00;;;;;;7366416;19;20018;-70
2023/04/06 00:59:01;;;;;;;20.00;12.55;;;1.30;1.00;;;;;;7365053;19;20375;-70
2023/04/06 01:01:34;;;;;;;21.80;11.77;;;1.20;1.00;;;;;;7387067;19;20018;-68
2023/04/06 01:04:05;;;;;;;19.13;13.00;;;1.10;1.00;;;;;;7365172;19;20019;-69
2023/04/06 01:06:35;;;;;;;15.60;11.13;;;1.20;1.00;;;;;;7365538;19;20018;-70
2023/04/06 01:09:05;;;;;;;15.93;11.23;;;1.20;1.00;;;;;;7364985;19;20014;-69
2023/04/06 01:11:36;;;;;;;17.08;11.40;;;1.40;1.00;;;;;;7373210;19;20094;-69
2023/04/06 01:14:06;;;;;;;15.57;10.75;;;1.50;1.00;;;;;;7379269;19;20488;-68
2023/04/06 01:16:39;;;;;;;18.52;11.35;;;1.50;1.00;;;;;;7402816;19;20082;-69
2023/04/06 01:19:14;;;;;;;15.93;10.70;;;1.50;1.00;;;;;;7377183;19;20075;-68
2023/04/06 01:21:44;;;;;;;14.75;10.88;;;1.50;1.00;;;;;;7379348;19;20380;-68
2023/04/06 01:24:17;;;;;;;16.85;11.20;;;1.50;1.00;;;;;;7379957;19;20013;-69
2023/04/06 01:26:47;;;;;;;17.33;11.63;;;1.40;1.00;;;;;;7380973;19;20938;-70
2023/04/06 01:29:17;;;;;;;16.90;11.40;;;1.50;1.00;;;;;;7377034;19;20019;-70
2023/04/06 01:31:48;;;;;;;17.92;11.63;;;1.50;1.00;;;;;;7402234;19;20777;-69
2023/04/06 01:34:18;;;;;;;20.65;11.50;;;1.40;1.00;;;;;;7377595;19;20015;-68
2023/04/06 01:36:48;;;;;;;20.85;11.70;;;1.40;1.00;;;;;;7377571;19;20179;-69
2023/04/06 01:39:21;;;;;;;17.40;11.50;;;1.40;1.00;;;;;;7377744;19;20013;-69
2023/04/06 01:41:51;;;;;;;19.48;13.00;;;1.40;1.00;;;;;;7378463;19;20514;-69
2023/04/06 01:44:21;;;;;;;17.10;12.18;;;1.30;1.00;;;;;;7377586;19;20738;-69
2023/04/06 01:46:51;;;;;;;21.52;12.75;;;1.30;1.00;;;;;;7402642;19;20013;-69
2023/04/06 01:49:21;;;;;;;15.95;10.95;;;1.40;1.00;;;;;;7377695;19;20007;-69
2023/04/06 01:51:52;;;;;;;17.98;10.93;;;1.30;1.00;;;;;;7378017;19;20459;-68
2023/04/06 01:54:25;;;;;;;18.83;11.15;;;1.30;1.00;;;;;;7376631;19;20010;-69
2023/04/06 01:56:55;;;;;;;16.08;11.20;;;1.20;1.00;;;;;;7379453;19;20027;-68
2023/04/06 01:59:25;;;;;;;18.20;9.88;;;1.30;1.00;;;;;;7377078;19;20017;-69
2023/04/06 02:01:55;;;;;;;14.90;10.20;;;1.20;1.00;;;;;;7401070;19;20021;-69
2023/04/06 02:04:25;;;;;;;15.18;9.98;;;1.20;1.00;;;;;;7379078;19;20035;-70
2023/04/06 02:06:55;;;;;;;19.27;10.52;;;1.20;1.00;;;;;;7376613;19;20018;-70
2023/04/06 02:09:28;;;;;;;14.15;10.43;;;1.20;1.00;;;;;;7377114;19;20014;-69
2023/04/06 02:11:58;;;;;;;13.55;9.68;;;1.20;1.00;;;;;;7377817;19;20061;-69
2023/04/06 02:14:28;;;;;;;15.23;10.60;;;1.20;1.00;;;;;;7377201;19;20225;-69
2023/04/06 02:16:59;;;;;;;14.90;9.68;;;1.20;1.00;;;;;;7379582;19;20019;-69
2023/04/06 02:19:29;;;;;;;17.40;11.18;;;1.10;1.00;;;;;;7397103;19;20474;-68
2023/04/06 02:21:59;;;;;;;14.27;10.45;;;1.10;1.00;;;;;;7375794;19;20428;-68
2023/04/06 02:24:32;;;;;;;15.13;10.77;;;1.20;1.00;;;;;;7368290;19;20011;-69
2023/04/06 02:27:02;;;;;;;21.80;10.82;;;1.20;1.00;;;;;;7372534;19;20025;-68
2023/04/06 02:29:32;;;;;;;16.00;11.18;;;1.20;1.00;;;;;;7367703;19;20387;-69
2023/04/06 02:32:02;;;;;;;18.73;11.23;;;1.20;1.00;;;;;;7370784;19;20018;-68
2023/04/06 02:34:32;;;;;;;17.20;11.60;;;1.20;1.00;;;;;;7391322;19;20018;-69
2023/04/06 02:37:02;;;;;;;18.90;11.90;;;1.10;1.00;;;;;;7369948;19;20014;-69
2023/04/06 02:39:35;;;;;;;19.45;10.85;;;1.20;1.00;;;;;;7368433;19;20018;-69
2023/04/06 02:42:05;;;;;;;18.83;11.45;;;1.10;1.00;;;;;;7369843;19;20018;-69
2023/04/06 02:44:35;;;;;;;14.75;10.85;;;1.10;1.00;;;;;;7369482;19;20021;-68
2023/04/06 02:47:05;;;;;;;15.90;10.68;;;1.10;1.00;;;;;;7372566;19;20003;-69
2023/04/06 02:49:35;;;;;;;15.15;10.25;;;1.10;1.00;;;;;;7389754;19;20559;-69
2023/04/06 02:52:05;;;;;;;15.48;11.00;;;1.10;1.00;;;;;;7369934;19;21608;-69
2023/04/06 02:54:38;;;;;;;16.30;11.48;;;1.10;1.00;;;;;;7368191;19;20017;-69
2023/04/06 02:57:08;;;;;;;17.20;11.27;;;1.00;1.00;;;;;;7369611;19;20084;-69
2023/04/06 02:59:38;;;;;;;20.45;12.25;;;1.10;1.00;;;;;;7368637;19;20045;-69
2023/04/06 03:02:09;;;;;;;18.02;11.73;;;1.10;1.00;;;;;;7370028;19;20026;-69
2023/04/06 03:04:39;;;;;;;17.05;12.05;;;1.00;1.00;;;;;;7392389;19;20042;-68
2023/04/06 03:07:09;;;;;;;19.23;12.50;;;1.00;1.00;;;;;;7368857;19;20015;-69
2023/04/06 03:09:42;;;;;;;17.95;12.43;;;1.00;1.00;;;;;;7367855;19;20011;-69
2023/04/06 03:12:12;;;;;;;18.20;12.00;;;1.00;1.00;;;;;;7370199;19;20010;-69
2023/04/06 03:14:42;;;;;;;18.13;12.98;;;1.00;1.00;;;;;;7368359;19;20010;-69
2023/04/06 03:17:12;;;;;;;21.75;13.68;;;1.00;1.00;;;;;;7370995;19;20632;-70
2023/04/06 03:19:42;;;;;;;18.35;12.60;;;1.10;1.00;;;;;;7388472;19;20475;-70
2023/04/06 03:22:12;;;;;;;19.83;13.10;;;1.00;1.00;;;;;;7369161;19;20011;-69
2023/04/06 03:24:45;;;;;;;18.45;13.07;;;1.10;1.00;;;;;;7366729;19;20013;-69
2023/04/06 03:27:15;;;;;;;21.38;12.32;;;1.00;1.00;;;;;;7370560;19;20027;-69
2023/04/06 03:29:45;;;;;;;18.50;12.98;;;1.00;1.00;;;;;;7365065;19;20111;-69
2023/04/06 03:32:15;;;;;;;22.10;12.95;;;1.00;1.00;;;;;;7368517;19;20467;-69
2023/04/06 03:34:45;;;;;;;21.05;12.98;;;0.90;1.00;;;;;;7387859;19;20487;-69
2023/04/06 03:37:15;;;;;;;20.92;13.00;;;1.00;1.00;;;;;;7367906;19;20007;-69
2023/04/06 03:39:48;;;;;;;21.48;13.45;;;1.00;1.00;;;;;;7365208;19;20085;-69
2023/04/06 03:42:18;;;;;;;19.17;13.15;;;0.90;1.00;;;;;;7368924;19;20018;-69
2023/04/06 03:44:48;;;;;;;19.33;13.70;;;0.90;1.00;;;;;;7367835;19;20013;-69
2023/04/06 03:47:18;;;;;;;23.45;13.90;;;0.90;1.00;;;;;;7370265;19;20373;-69
2023/04/06 03:49:48;;;;;;;22.35;14.32;;;0.90;1.00;;;;;;7387132;19;20749;-70
2023/04/06 03:52:18;;;;;;;24.88;13.70;;;0.80;1.00;;;;;;7369271;19;20009;-69
2023/04/06 03:54:51;;;;;;;20.50;13.52;;;0.80;1.00;;;;;;7365694;19;20488;-69
2023/04/06 03:57:21;;;;;;;25.20;14.43;;;0.70;1.00;;;;;;7366602;19;20006;-69
2023/04/06 03:59:51;;;;;;;22.60;14.25;;;0.80;1.00;;;;;;7366787;19;20014;-68
2023/04/06 04:02:21;;;;;;;22.80;15.38;;;0.80;1.00;;;;;;7367146;19;20025;-68
2023/04/06 04:04:52;;;;;;;21.30;13.80;;;0.80;1.00;;;;;;7387807;19;20043;-68
2023/04/06 04:07:22;;;;;;;21.23;14.27;;;0.80;1.00;;;;;;7391515;19;20011;-68
2023/04/06 04:09:54;;;;;;;22.58;15.07;;;0.80;1.00;;;;;;7389479;19;20010;-68
2023/04/06 04:12:24;;;;;;;18.27;13.70;;;0.70;1.00;;;;;;7391356;19;20014;-68
2023/04/06 04:14:54;;;;;;;20.38;14.18;;;0.70;1.00;;;;;;7391634;19;20011;-69
2023/04/06 04:17:25;;;;;;;20.73;14.35;;;0.70;1.00;;;;;;7391460;19;20073;-69
2023/04/06 04:19:55;;;;;;;20.98;13.73;;;0.70;1.00;;;;;;7363081;19;20018;-69
2023/04/06 04:22:25;;;;;;;22.30;14.63;;;0.70;1.00;;;;;;7368125;19;20177;-67
2023/04/06 04:24:58;;;;;;;23.15;14.88;;;0.60;1.00;;;;;;7377299;19;20124;-68
2023/04/06 04:27:28;;;;;;;24.10;14.88;;;0.70;1.00;;;;;;7386351;19;20018;-70
2023/04/06 04:29:58;;;;;;;22.95;14.68;;;0.70;1.00;;;;;;7365574;19;20050;-69
2023/04/06 04:32:28;;;;;;;19.85;13.98;;;0.70;1.00;;;;;;7366382;19;20022;-69
2023/04/06 04:34:58;;;;;;;25.65;15.05;;;0.70;1.00;;;;;;7364361;19;20437;-68
2023/04/06 04:37:28;;;;;;;25.63;14.43;;;0.70;1.00;;;;;;7367806;19;20007;-69
2023/04/06 04:40:00;;;;;;;22.25;14.93;;;0.80;1.00;;;;;;7365879;19;20033;-68
2023/04/06 04:42:30;;;;;;;23.30;14.50;;;0.70;1.00;;;;;;7387611;19;20635;-68
2023/04/06 04:45:01;;;;;;;19.27;13.10;;;0.70;1.00;;;;;;7366084;19;20612;-68
2023/04/06 04:47:31;;;;;;;22.90;14.02;;;0.70;1.00;;;;;;7363961;19;20010;-68
2023/04/06 04:50:01;;;;;;;26.33;15.30;;;0.70;1.00;;;;;;7364306;19;20019;-68
2023/04/06 04:52:31;;;;;;;25.98;13.85;;;0.70;1.00;;;;;;7366932;19;20720;-69
2023/04/06 04:55:04;;;;;;;25.23;15.52;;;0.60;1.00;;;;;;7366593;19;20018;-69
2023/04/06 04:57:34;;;;;;;24.75;15.52;;;0.60;1.00;;;;;;7386678;19;20010;-70
2023/04/06 05:00:06;;;;;;;23.30;14.45;;;0.70;1.00;;;;;;7363631;19;20010;-68
2023/04/06 05:02:36;;;;;;;28.20;16.10;;;0.70;1.00;;;;;;7366067;19;20014;-69
2023/04/06 05:05:07;;;;;;;28.95;15.48;;;0.70;1.00;;;;;;7364395;19;20031;-69
2023/04/06 05:07:37;;;;;;;29.58;16.00;;;0.80;1.00;;;;;;7364216;19;20047;-70
2023/04/06 05:10:10;;;;;;;25.10;15.35;;;1.10;1.00;;;;;;7363536;19;20362;-69
2023/04/06 05:12:41;;;;;;;24.35;15.52;;;2.00;1.00;;;;;;7387618;19;20019;-68
2023/04/06 05:15:12;;;;;;;25.70;14.95;;;2.70;1.00;;;;;;7364555;19;20010;-68
2023/04/06 05:17:42;;;;;;;24.90;15.35;;;3.30;1.00;;;;;;7365386;19;20026;-69
2023/04/06 05:20:13;;;;;;;21.30;13.95;;;3.60;1.00;;;;;;7364074;19;20081;-69
2023/04/06 05:22:43;;;;;;;31.90;14.07;;;4.10;1.00;;;;;;7364243;19;20078;-69
2023/04/06 05:25:16;;;;;;;21.05;13.38;;;4.30;1.00;;;;;;7366389;19;20010;-69
2023/04/06 05:27:46;;;;;;;21.70;13.05;;;4.50;1.00;;;;;;7383751;19;20022;-69
2023/04/06 05:30:17;;;;;;;17.38;11.80;;;4.70;1.00;;;;;;7363654;19;20078;-69
2023/04/06 05:32:47;;;;;;;19.85;12.13;;;5.10;1.00;;;;;;7365078;19;20014;-69
2023/04/06 05:35:17;;;;;;;25.83;13.15;;;5.00;1.00;;;;;;7363624;19;20007;-69
2023/04/06 05:37:48;;;;;;;18.92;12.07;;;3.30;1.00;;;;;;7387038;19;20027;-69
2023/04/06 05:40:21;;;;;;;19.65;12.70;;;2.50;1.00;;;;;;7387429;19;20033;-69
2023/04/06 05:42:51;;;;;;;23.05;13.88;;;2.30;1.00;;;;;;7358485;19;20031;-69
2023/04/06 05:45:22;;;;;;;26.58;13.50;;;2.30;1.00;;;;;;7364940;19;20022;-69
2023/04/06 05:47:52;;;;;;;20.45;13.38;;;2.20;1.00;;;;;;7384442;19;20026;-69
2023/04/06 05:50:22;;;;;;;22.83;12.48;;;2.30;1.00;;;;;;7362453;19;20014;-69
2023/04/06 05:52:52;;;;;;;20.85;13.68;;;2.40;1.00;;;;;;7364419;19;20028;-69
2023/04/06 05:55:25;;;;;;;23.38;13.23;;;2.40;1.00;;;;;;7363404;19;20007;-68
2023/04/06 05:57:55;;;;;;;21.33;13.23;;;2.50;1.00;;;;;;7364463;19;20123;-71
2023/04/06 06:00:26;;;;;;;23.02;14.40;;;2.60;1.00;;;;;;7390818;19;20010;-68
2023/04/06 06:02:56;;;;;;;22.52;13.10;;;2.60;1.00;;;;;;7370304;19;20011;-69
2023/04/06 06:05:26;;;;;;;21.63;12.85;;;2.60;1.00;;;;;;7372165;19;20018;-70
2023/04/06 06:07:56;;;;;;;24.70;13.02;;;2.60;1.00;;;;;;7370870;19;20006;-69
2023/04/06 06:10:29;;;;;;;20.33;13.00;;;2.70;1.00;;;;;;7369466;19;20122;-69
2023/04/06 06:12:59;;;;;;;19.02;12.63;;;2.60;1.00;;;;;;7372406;19;20048;-68
2023/04/06 06:15:29;;;;;;;22.10;13.80;;;2.70;1.00;;;;;;7392561;19;20015;-69
2023/04/06 06:18:00;;;;;;;18.90;11.90;;;2.90;1.00;;;;;;7370428;19;20018;-69
2023/04/06 06:20:30;;;;;;;20.70;12.75;;;2.80;1.00;;;;;;7368909;19;20110;-68
2023/04/06 06:23:00;;;;;;;21.15;12.35;;;3.00;1.00;;;;;;7372007;19;20390;-69
2023/04/06 06:25:33;;;;;;;20.45;12.55;;;2.90;1.00;;;;;;7370563;19;20037;-69
2023/04/06 06:28:03;;;;;;;18.65;11.85;;;3.00;1.00;;;;;;7371346;19;20180;-71
2023/04/06 06:30:33;;;;;;;23.88;12.30;;;3.00;1.00;;;;;;7390289;19;20020;-68
2023/04/06 06:33:04;;;;;;;22.63;12.23;;;3.20;1.00;;;;;;7370573;19;20038;-69
2023/04/06 06:35:34;;;;;;;14.82;10.80;;;3.30;1.00;;;;;;7370076;19;20010;-69
2023/04/06 06:38:04;;;;;;;17.98;11.60;;;3.30;1.00;;;;;;7370815;19;20014;-69
2023/04/06 06:40:37;;;;;;;18.02;10.70;;;3.50;1.00;;;;;;7370129;19;20014;-69
2023/04/06 06:43:07;;;;;;;19.00;10.88;;;3.40;1.00;;;;;;7372260;19;20491;-69
2023/04/06 06:45:37;;;;;;;19.13;11.88;;;3.60;1.00;;;;;;7393340;19;20022;-69
2023/04/06 06:48:07;;;;;;;17.42;10.85;;;3.60;1.00;;;;;;7369915;19;20039;-68
2023/04/06 06:50:38;;;;;;;19.25;11.43;;;3.60;1.00;;;;;;7367145;19;20010;-69
2023/04/06 06:53:08;;;;;;;18.48;11.68;;;3.60;1.00;;;;;;7371709;19;20031;-69
2023/04/06 06:55:41;;;;;;;17.73;11.40;;;3.80;1.00;;;;;;7370155;19;20018;-69
2023/04/06 06:58:11;;;;;;;19.92;10.90;;;4.00;1.00;;;;;;7368496;19;20011;-69
2023/04/06 07:00:44;;;;;;;17.88;11.70;;;4.10;1.00;;;;;;7388962;19;20022;-68
2023/04/06 07:03:14;;;;;;;17.85;11.25;;;4.10;1.00;;;;;;7370258;19;20010;-69
2023/04/06 07:05:52;;;;;;;16.58;11.63;;;4.20;1.00;;;;;;7368946;19;20010;-70
2023/04/06 07:08:23;;;;;;;20.27;12.23;;;4.10;1.00;;;;;;7367275;19;20031;-68
2023/04/06 07:10:57;;;;;;;18.83;11.68;;;4.30;1.00;;;;;;7366175;19;20018;-69
2023/04/06 07:13:27;;;;;;;19.05;11.90;;;4.50;1.00;;;;;;7370219;19;20014;-69
2023/04/06 07:15:57;;;;;;;19.25;11.45;;;4.60;1.00;;;;;;7370954;19;20078;-70
2023/04/06 07:18:28;;;;;;;18.00;11.40;;;4.60;1.00;;;;;;7388043;19;20006;-69
2023/04/06 07:20:59;;;;;;;23.02;11.45;;;4.70;1.00;;;;;;7369188;19;20056;-69
2023/04/06 07:23:29;;;;;;;24.00;15.00;;;5.00;1.00;;;;;;7368874;19;20011;-69
2023/04/06 07:26:02;;;;;;;15.10;11.00;;;5.20;1.00;;;;;;7369845;19;20394;-69
2023/04/06 07:28:32;;;;;;;15.45;10.82;;;5.20;1.00;;;;;;7369092;19;20445;-69
2023/04/06 07:31:02;;;;;;;17.95;11.70;;;5.20;1.00;;;;;;7367468;19;20049;-68
2023/04/06 07:33:32;;;;;;;15.82;10.90;;;5.30;1.00;;;;;;7389395;19;20422;-69
2023/04/06 07:36:02;;;;;;;24.05;11.40;;;5.60;1.00;;;;;;7369451;19;20021;-69
2023/04/06 07:38:33;;;;;;;15.70;10.43;;;5.60;1.00;;;;;;7367309;19;20463;-68
2023/04/06 07:41:06;;;;;;;17.40;11.25;;;5.60;1.00;;;;;;7366658;19;20014;-69
2023/04/06 07:43:36;;;;;;;17.42;11.63;;;5.60;1.00;;;;;;7367830;19;20010;-70
2023/04/06 07:46:06;;;;;;;16.20;10.82;;;5.70;1.00;;;;;;7368983;19;20044;-70
2023/04/06 07:48:37;;;;;;;17.20;11.68;;;5.80;1.00;;;;;;7387485;19;20014;-68
2023/04/06 07:51:13;;;;;;;17.25;11.30;;;5.90;1.00;;;;;;7366661;19;20026;-69
2023/04/06 07:53:44;;;;;;;18.33;11.25;;;6.20;1.00;;;;;;7366545;19;20015;-70
2023/04/06 07:56:17;;;;;;;20.90;11.40;;;6.20;1.00;;;;;;7370167;19;20077;-69
2023/04/06 07:58:47;;;;;;;17.15;10.95;;;6.40;1.00;;;;;;7366062;19;20014;-69
2023/04/06 08:01:17;;;;;;;20.40;10.90;;;6.50;1.00;;;;;;7367510;19;20062;-69
2023/04/06 08:03:47;;;;;;;15.73;10.35;;;6.60;1.00;;;;;;7381028;19;20020;-70
2023/04/06 08:06:17;;;;;;;19.63;11.07;;;6.90;1.00;;;;;;7390999;19;20457;-67
2023/04/06 08:08:47;;;;;;;17.85;11.23;;;6.90;1.00;;;;;;7365663;19;20581;-70
2023/04/06 08:11:20;;;;;;;15.43;10.38;;;7.10;1.00;;;;;;7367146;19;20014;-70
2023/04/06 08:13:50;;;;;;;17.73;10.63;;;7.00;1.00;;;;;;7367371;19;20089;-70
2023/04/06 08:16:21;;;;;;;15.90;10.90;;;7.10;1.00;;;;;;7367897;19;20094;-71
2023/04/06 08:18:51;;;;;;;18.35;11.10;;;7.20;1.00;;;;;;7365310;19;20406;-70
2023/04/06 08:21:21;;;;;;;16.52;11.63;;;7.10;1.00;;;;;;7386105;19;20318;-69
2023/04/06 08:23:51;;;;;;;19.35;11.02;;;7.40;1.00;;;;;;7365294;19;20198;-70
2023/04/06 08:26:25;;;;;;;17.25;11.35;;;7.50;1.00;;;;;;7367485;19;20006;-71
2023/04/06 08:28:56;;;;;;;18.25;11.82;;;7.60;1.00;;;;;;7366329;19;20007;-70
2023/04/06 08:31:26;;;;;;;21.90;11.13;;;7.80;1.00;;;;;;7366686;19;20007;-70
2023/04/06 08:33:56;;;;;;;16.50;10.70;;;7.90;1.00;;;;;;7365917;19;20017;-69
2023/04/06 08:36:26;;;;;;;16.52;11.07;;;7.70;1.00;;;;;;7388503;19;20014;-70
2023/04/06 08:38:56;;;;;;;18.00;10.73;;;7.90;1.00;;;;;;7363284;19;20010;-70
2023/04/06 08:41:30;;;;;;;16.88;9.95;;;8.30;1.00;;;;;;7366416;19;20010;-70
2023/04/06 08:44:01;;;;;;;17.40;10.23;;;8.20;1.00;;;;;;7365386;19;20013;-70
2023/04/06 08:46:32;;;;;;;15.20;10.18;;;8.20;1.00;;;;;;7366032;19;20006;-69
2023/04/06 08:49:06;;;;;;;14.77;10.57;;;8.30;1.00;;;;;;7365486;19;20022;-68
2023/04/06 08:51:40;;;;;;;12.82;8.68;;;8.30;1.00;;;;;;7387871;19;20015;-70
2023/04/06 08:54:10;;;;;;;15.90;10.65;;;8.40;1.00;;;;;;7365046;19;20010;-69
2023/04/06 08:56:43;;;;;;;16.92;10.63;;;8.70;1.00;;;;;;7367176;19;20006;-70
2023/04/06 08:59:13;;;;;;;14.20;9.73;;;9.00;1.00;;;;;;7364414;19;20510;-70
2023/04/06 09:01:45;;;;;;;17.55;10.50;;;8.80;1.00;;;;;;7366863;19;20093;-68
2023/04/06 09:04:16;;;;;;;14.95;10.25;;;8.80;1.00;;;;;;7366039;19;20018;-70
2023/04/06 09:06:47;;;;;;;14.07;9.35;;;8.80;1.00;;;;;;7384930;19;20010;-71
2023/04/06 09:09:17;;;;;;;14.25;10.15;;;9.00;1.00;;;;;;7385198;19;20091;-69
2023/04/06 09:11:52;;;;;;;14.85;10.05;;;9.20;1.00;;;;;;7366133;19;20127;-69
2023/04/06 09:14:37;;;;;;;12.52;8.98;;;9.20;1.00;;;;;;7364544;19;20014;-69
2023/04/06 09:17:08;;;;;;;17.13;9.90;;;9.10;1.00;;;;;;7364794;19;20015;-69
2023/04/06 09:19:48;;;;;;;17.65;9.95;;;9.20;1.00;;;;;;7363023;19;20014;-70
2023/04/06 09:22:18;;;;;;;15.85;10.45;;;9.30;1.00;;;;;;7368044;19;20014;-70
2023/04/06 09:24:50;;;;;;;15.43;9.80;;;9.30;1.00;;;;;;7363287;19;20474;-68
2023/04/06 09:27:33;;;;;;;13.90;9.57;;;9.10;1.00;;;;;;7385742;19;20053;-70
2023/04/06 09:30:09;;;;;;;13.68;9.73;;;9.40;1.00;;;;;;7362813;19;20471;-70
2023/04/06 09:32:50;;;;;;;13.57;9.05;;;9.50;1.00;;;;;;7368960;19;20017;-70
2023/04/06 09:35:22;;;;;;;13.02;8.98;;;9.70;1.00;;;;;;7371672;19;20017;-69
2023/04/06 09:37:53;;;;;;;18.27;9.77;;;10.00;1.00;;;;;;7371468;19;20011;-70
2023/04/06 09:40:24;;;;;;;14.85;8.70;;;9.90;1.00;;;;;;7371420;19;20223;-70
2023/04/06 09:42:58;;;;;;;12.73;8.98;;;9.90;1.00;;;;;;7373849;19;20026;-70
2023/04/06 09:45:29;;;;;;;;;;;10.20;1.00;;;;;;7393416;19;20021;-69
2023/04/06 09:47:59;;;;;;;11.93;8.55;;;10.40;1.00;;;;;;7371957;19;19914;-70
2023/04/06 09:50:32;;;;;;;14.32;8.05;;;10.30;1.00;;;;;;7371789;19;20416;-70
2023/04/06 09:53:03;;;;;;;13.45;8.68;;;10.00;1.00;;;;;;7372270;19;20021;-69
2023/04/06 09:55:37;;;;;;;14.73;8.98;;;10.20;1.00;;;;;;7371410;19;20018;-70
2023/04/06 09:58:15;;;;;;;11.93;7.88;;;10.70;1.00;;;;;;7371531;19;20007;-70
2023/04/06 10:00:50;;;;;;;16.17;9.10;;;11.10;1.00;;;;;;7389622;19;20497;-69
2023/04/06 10:03:37;;;;;;;10.40;7.88;;;11.10;1.00;;;;;;7370865;19;20534;-69
2023/04/06 10:06:13;;;;;;;10.30;7.82;;;11.00;1.00;;;;;;7371423;19;20011;-70
2023/04/06 10:08:45;;;;;;;12.93;8.93;;;10.80;1.00;;;;;;7368817;19;20063;-69
2023/04/06 10:11:15;;;;;;;13.98;9.50;;;10.70;1.00;;;;;;7370826;19;20017;-70
2023/04/06 10:13:51;;;;;;;17.27;11.63;;;10.80;1.00;;;;;;7369882;19;20014;-69
2023/04/06 10:16:21;;;;;;;10.65;7.47;;;11.20;1.00;;;;;;7371485;19;20915;-70
2023/04/06 10:18:58;;;;;;;12.73;9.10;;;10.60;1.00;;;;;;7369435;19;20014;-70
2023/04/06 10:21:31;;;;;;;12.93;8.30;;;10.80;1.00;;;;;;7392810;19;20018;-70
2023/04/06 10:24:03;;;;;;;15.18;8.82;;;10.70;1.00;;;;;;7369998;19;20529;-69
2023/04/06 10:26:33;;;;;;;12.23;8.65;;;10.90;1.00;;;;;;7368717;19;20006;-68
2023/04/06 10:29:07;;;;;;;11.30;8.55;;;10.70;1.00;;;;;;7368981;19;20030;-70
2023/04/06 10:31:44;;;;;;;12.40;8.63;;;10.60;1.00;;;;;;7371406;19;20038;-69
2023/04/06 10:34:14;;;;;;;14.73;8.85;;;11.00;1.00;;;;;;7369938;19;20015;-69
2023/04/06 10:36:45;;;;;;;15.77;9.15;;;11.30;1.00;;;;;;7391821;19;20340;-70
2023/04/06 10:39:15;;;;;;;13.82;8.57;;;11.20;1.00;;;;;;7368167;19;20086;-69
2023/04/06 10:41:48;;;;;;;14.00;9.45;;;11.60;1.00;;;;;;7371779;19;20611;-71
2023/04/06 10:44:26;;;;;;;13.65;9.05;;;11.80;1.00;;;;;;7367973;19;20474;-69
2023/04/06 10:47:00;;;;;;;11.85;9.07;;;11.70;1.00;;;;;;7370053;19;20014;-70
2023/04/06 10:49:30;;;;;;;12.52;9.38;;;11.30;1.00;;;;;;7369893;19;20011;-70
2023/04/06 10:52:00;;;;;;;15.60;10.07;;;11.50;1.00;;;;;;7370477;19;20031;-69
2023/04/06 10:54:32;;;;;;;18.73;9.40;;;11.30;1.00;;;;;;7391881;19;20018;-70
2023/04/06 10:57:02;;;;;;;15.43;9.18;;;11.50;1.00;;;;;;7369550;19;20380;-70
2023/04/06 10:59:35;;;;;;;15.10;9.70;;;11.90;1.00;;;;;;7367509;19;20058;-70
2023/04/06 11:02:05;;;;;;;13.45;9.88;;;12.00;1.00;;;;;;7370819;19;20636;-69
2023/04/06 11:04:35;;;;;;;12.63;9.45;;;11.80;1.00;;;;;;7370049;19;20007;-69
2023/04/06 11:07:06;;;;;;;13.88;9.48;;;11.70;1.00;;;;;;7369531;19;20014;-69
2023/04/06 11:09:36;;;;;;;15.00;9.73;;;11.70;1.00;;;;;;7389747;19;20463;-70
2023/04/06 11:12:07;;;;;;;14.05;9.38;;;11.30;1.00;;;;;;7370528;19;20010;-69
2023/04/06 11:14:39;;;;;;;12.52;9.43;;;11.30;1.00;;;;;;7368114;19;20053;-70
2023/04/06 11:17:09;;;;;;;12.25;9.40;;;11.80;1.00;;;;;;7369603;19;20496;-69
2023/04/06 11:19:40;;;;;;;12.98;9.48;;;12.10;1.00;;;;;;7367948;19;20077;-69
2023/04/06 11:22:10;;;;;;;16.60;9.30;;;11.90;1.00;;;;;;7369967;19;20016;-69
2023/04/06 11:24:40;;;;;;;14.50;9.52;;;11.70;1.00;;;;;;7391084;19;20006;-69
2023/04/06 11:27:11;;;;;;;14.82;10.40;;;11.80;1.00;;;;;;7368894;19;20015;-69
2023/04/06 11:29:45;;;;;;;14.68;9.55;;;12.10;1.00;;;;;;7365884;19;20758;-69
2023/04/06 11:32:24;;;;;;;13.73;9.35;;;12.00;1.00;;;;;;7369697;19;20524;-70
2023/04/06 11:34:54;;;;;;;14.88;9.80;;;12.00;1.00;;;;;;7368625;19;20479;-69
2023/04/06 11:37:28;;;;;;;12.65;9.75;;;11.90;1.00;;;;;;7367892;19;20023;-69
2023/04/06 11:39:58;;;;;;;13.35;9.93;;;11.60;1.00;;;;;;7366564;19;20078;-68
2023/04/06 11:42:30;;;;;;;12.40;8.95;;;11.70;1.00;;;;;;7390079;19;20006;-68
2023/04/06 11:45:03;;;;;;;12.85;9.60;;;11.90;1.00;;;;;;7366989;19;20021;-71
2023/04/06 11:47:37;;;;;;;14.18;9.80;;;12.10;1.00;;;;;;7367514;19;20017;-69
2023/04/06 11:50:11;;;;;;;12.63;8.13;;;12.10;1.00;;;;;;7366062;19;20006;-69
2023/04/06 11:52:42;;;;;;;;;;;12.00;1.00;;;;;;7368342;19;20025;-70
2023/04/06 11:55:17;;;;;;;11.65;8.70;;;12.30;1.00;;;;;;7369044;19;20402;-69
2023/04/06 11:57:47;;;;;;;18.27;9.82;;;12.30;1.00;;;;;;7385184;19;20055;-71
2023/04/06 12:00:21;;;;;;;13.98;9.18;;;12.10;1.00;;;;;;7387597;19;20006;-70
2023/04/06 12:02:52;;;;;;;15.27;9.68;;;12.20;1.00;;;;;;7367685;19;20091;-70
2023/04/06 12:05:22;;;;;;;12.75;9.95;;;12.00;1.00;;;;;;7365986;19;20101;-70
2023/04/06 12:07:52;;;;;;;15.40;10.10;;;12.30;1.00;;;;;;7368088;19;20509;-69
2023/04/06 12:10:23;;;;;;;13.30;9.45;;;12.50;1.00;;;;;;7364482;19;20007;-69
2023/04/06 12:12:53;;;;;;;15.25;9.50;;;12.50;1.00;;;;;;7367339;19;20098;-69
2023/04/06 12:15:25;;;;;;;16.83;10.38;;;11.90;1.00;;;;;;7387748;19;20357;-69
2023/04/06 12:17:55;;;;;;;13.68;9.80;;;12.00;1.00;;;;;;7366603;19;20118;-70
2023/04/06 12:20:25;;;;;;;15.18;9.32;;;12.20;1.00;;;;;;7365085;19;20015;-69
2023/04/06 12:22:56;;;;;;;17.30;10.15;;;12.10;1.00;;;;;;7368231;19;20010;-69
2023/04/06 12:25:26;;;;;;;18.42;10.25;;;12.30;1.00;;;;;;7367912;19;20089;-69
2023/04/06 12:27:57;;;;;;;13.93;9.75;;;12.70;1.00;;;;;;7364227;19;20018;-71
2023/04/06 12:30:30;;;;;;;14.55;9.30;;;12.30;1.00;;;;;;7387381;19;20030;-70
2023/04/06 12:33:01;;;;;;;14.85;8.88;;;12.60;1.00;;;;;;7367982;19;20074;-70
2023/04/06 12:35:31;;;;;;;13.52;9.10;;;12.40;1.00;;;;;;7365402;19;20015;-70
2023/04/06 12:38:01;;;;;;;14.55;9.82;;;12.50;1.00;;;;;;7366144;19;20066;-70
2023/04/06 12:40:31;;;;;;;15.65;10.20;;;12.60;1.00;;;;;;7364329;19;20015;-68
2023/04/06 12:43:01;;;;;;;11.60;8.95;;;12.80;1.00;;;;;;7366425;19;20171;-70
2023/04/06 12:45:36;;;;;;;13.00;8.30;;;13.30;1.00;;;;;;7388392;19;20096;-70
2023/04/06 12:48:07;;;;;;;12.07;9.18;;;13.80;1.00;;;;;;7366569;19;20011;-70
2023/04/06 12:50:38;;;;;;;10.98;8.35;;;13.50;1.00;;;;;;7363018;19;20014;-71
2023/04/06 12:53:09;;;;;;;11.20;8.38;;;13.50;1.00;;;;;;7365174;19;20810;-69
2023/04/06 12:55:39;;;;;;;13.70;8.43;;;13.80;1.00;;;;;;7362725;19;20046;-70
2023/04/06 12:58:09;;;;;;;12.68;8.00;;;13.60;1.00;;;;;;7364365;19;20021;-69
2023/04/06 13:00:41;;;;;;;12.38;8.63;;;13.40;1.00;;;;;;7384099;19;20017;-68
2023/04/06 13:03:12;;;;;;;15.75;8.40;;;13.20;1.00;;;;;;7363170;19;20033;-70
2023/04/06 13:05:47;;;;;;;13.13;8.88;;;13.10;1.00;;;;;;7363929;19;20025;-68
2023/04/06 13:08:19;;;;;;;13.15;8.65;;;13.20;1.00;;;;;;7362200;19;20383;-70